createdAt,value
2023-04-25T00:06:41.872Z,100.00
2023-04-25T00:14:00.921Z,100.00
2023-04-25T00:21:19.444Z,100.00
2023-04-25T00:28:39.576Z,100.00
2023-04-25T00:35:58.146Z,100.00
2023-04-25T00:43:16.449Z,100.00
2023-04-25T00:50:36.869Z,100.00
2023-04-25T00:57:55.173Z,100.00
2023-04-25T01:05:14.587Z,100.00
2023-04-25T01:12:34.684Z,100.00
2023-04-25T01:19:52.981Z,100.00
2023-04-25T01:27:13.420Z,100.00
2023-04-25T01:34:32.176Z,100.00
2023-04-25T01:41:50.951Z,100.00
2023-04-25T01:49:10.973Z,100.00
2023-04-25T01:56:34.030Z,100.00
2023-04-25T02:03:53.684Z,100.00
2023-04-25T02:11:19.703Z,100.00
2023-04-25T02:18:53.996Z,100.00
2023-04-25T02:26:12.422Z,100.00
2023-04-25T02:33:32.226Z,100.00
2023-04-25T02:40:50.426Z,100.00
2023-04-25T02:48:10.160Z,100.00
2023-04-25T02:55:29.853Z,100.00
2023-04-25T03:02:49.582Z,100.00
2023-04-25T03:10:08.953Z,100.00
2023-04-25T03:17:29.876Z,100.00
2023-04-25T03:24:48.230Z,100.00
2023-04-25T03:32:06.931Z,100.00
2023-04-25T03:39:26.587Z,100.00
2023-04-25T03:46:48.376Z,100.00
2023-04-25T03:54:07.107Z,100.00
2023-04-25T04:01:45.424Z,100.00
2023-04-25T04:09:04.066Z,100.00
2023-04-25T04:16:26.067Z,100.00
2023-04-25T04:23:45.926Z,100.00
2023-04-25T04:31:05.112Z,100.00
2023-04-25T04:38:23.511Z,100.00
2023-04-25T04:45:45.721Z,100.00
2023-04-25T04:53:16.060Z,100.00
2023-04-25T05:01:14.592Z,100.00
2023-04-25T05:08:55.292Z,100.00
2023-04-25T05:16:53.320Z,100.00
2023-04-25T05:24:37.900Z,100.00
2023-04-25T05:32:21.418Z,100.00
2023-04-25T05:39:41.373Z,100.00
2023-04-25T05:47:21.658Z,100.00
2023-04-25T05:54:53.170Z,100.00
2023-04-25T06:02:11.962Z,100.00
2023-04-25T06:09:32.192Z,100.00
2023-04-25T06:16:50.824Z,100.00
2023-04-25T06:24:09.298Z,100.00
2023-04-25T06:31:30.183Z,100.00
2023-04-25T06:38:49.249Z,100.00
2023-04-25T06:46:07.865Z,96.16
2023-04-25T06:53:34.914Z,88.40
2023-04-25T07:00:56.004Z,86.20
2023-04-25T07:08:16.713Z,76.60
2023-04-25T07:15:37.188Z,70.64
2023-04-25T07:22:56.332Z,78.77
2023-04-25T07:30:15.632Z,69.42
2023-04-25T07:37:35.444Z,71.16
2023-04-25T07:45:14.179Z,62.65
2023-04-25T07:52:33.231Z,61.27
2023-04-25T08:00:01.179Z,61.37
2023-04-25T08:07:21.006Z,56.44
2023-04-25T08:14:45.602Z,55.08
2023-04-25T08:22:05.602Z,55.28
2023-04-25T08:29:35.189Z,59.57
2023-04-25T08:36:53.942Z,60.92
2023-04-25T08:44:35.725Z,62.78
2023-04-25T08:51:55.117Z,61.41
2023-04-25T08:59:15.440Z,68.63
2023-04-25T09:06:37.765Z,68.10
2023-04-25T09:14:13.094Z,71.91
2023-04-25T09:21:46.616Z,71.38
2023-04-25T09:29:08.417Z,69.95
2023-04-25T09:36:31.631Z,69.88
2023-04-25T09:44:15.092Z,66.09
2023-04-25T09:51:35.018Z,68.23
2023-04-25T09:58:56.268Z,67.03
2023-04-25T10:06:20.668Z,59.64
2023-04-25T10:13:42.072Z,56.06
2023-04-25T10:21:02.923Z,54.65
2023-04-25T10:28:23.116Z,55.24
2023-04-25T10:35:41.562Z,57.52
2023-04-25T10:43:46.144Z,52.60
2023-04-25T10:51:12.102Z,56.61
2023-04-25T10:58:30.273Z,55.21
2023-04-25T11:05:57.814Z,52.52
2023-04-25T11:13:19.423Z,52.54
2023-04-25T11:20:37.659Z,50.54
2023-04-25T11:27:58.386Z,50.07
2023-04-25T11:35:18.778Z,51.02
2023-04-25T11:42:37.028Z,51.89
2023-04-25T11:49:55.924Z,51.30
2023-04-25T11:57:15.638Z,52.89
2023-04-25T12:04:34.813Z,51.96
2023-04-25T12:11:55.958Z,54.31
2023-04-25T12:19:18.249Z,50.47
2023-04-25T12:26:48.916Z,51.14
2023-04-25T12:34:07.380Z,50.68
2023-04-25T12:41:27.208Z,51.69
2023-04-25T12:48:45.586Z,52.64
2023-04-25T12:56:04.288Z,52.98
2023-04-25T13:03:24.395Z,53.49
2023-04-25T13:10:43.109Z,54.20
2023-04-25T13:18:01.725Z,54.65
2023-04-25T13:25:22.950Z,50.97
2023-04-25T13:32:42.251Z,51.24
2023-04-25T13:40:02.328Z,54.42
2023-04-25T13:47:22.093Z,54.92
2023-04-25T13:54:40.456Z,56.93
2023-04-25T14:01:58.819Z,54.53
2023-04-25T14:09:18.522Z,52.35
2023-04-25T14:16:36.839Z,51.01
2023-04-25T14:23:55.208Z,52.68
2023-04-25T14:31:14.980Z,54.87
2023-04-25T14:38:33.481Z,55.93
2023-04-25T14:45:52.785Z,59.54
2023-04-25T14:53:13.227Z,60.77
2023-04-25T15:00:32.101Z,62.79
2023-04-25T15:07:51.897Z,62.46
2023-04-25T15:15:17.471Z,62.13
2023-04-25T15:22:39.367Z,62.08
2023-04-25T15:29:57.578Z,62.63
2023-04-25T15:37:17.391Z,62.82
2023-04-25T15:44:35.675Z,62.93
2023-04-25T15:51:54.065Z,65.64
2023-04-25T15:59:14.609Z,66.57
2023-04-25T16:06:33.274Z,68.73
2023-04-25T16:13:51.709Z,72.62
2023-04-25T16:21:16.950Z,75.57
2023-04-25T16:28:36.121Z,77.35
2023-04-25T16:35:54.570Z,73.31
2023-04-25T16:43:14.909Z,75.96
2023-04-25T16:50:33.454Z,78.37
2023-04-25T16:57:52.152Z,76.85
2023-04-25T17:05:12.238Z,91.69
2023-04-25T17:12:30.859Z,100.00
2023-04-25T17:19:49.222Z,100.00
2023-04-25T17:27:09.057Z,100.00
2023-04-25T17:34:27.403Z,100.00
2023-04-25T17:41:45.799Z,100.00
2023-04-25T17:49:05.817Z,100.00
2023-04-25T17:56:27.136Z,100.00
2023-04-25T18:03:49.217Z,100.00
2023-04-25T18:11:09.074Z,100.00
2023-04-25T18:18:33.383Z,100.00
2023-04-25T18:25:52.545Z,100.00
2023-04-25T18:33:12.157Z,100.00
2023-04-25T18:40:30.361Z,100.00
2023-04-25T18:47:48.587Z,100.00
2023-04-25T18:55:09.536Z,100.00
2023-04-25T19:02:27.964Z,100.00
2023-04-25T19:09:46.312Z,100.00
2023-04-25T19:17:06.082Z,100.00
2023-04-25T19:24:24.396Z,100.00
2023-04-25T19:31:44.459Z,100.00
2023-04-25T19:39:04.755Z,100.00
2023-04-25T19:46:23.846Z,100.00
2023-04-25T19:53:42.134Z,100.00
2023-04-25T20:01:02.101Z,100.00
2023-04-25T20:08:20.487Z,100.00
2023-04-25T20:15:38.819Z,100.00
2023-04-25T20:22:58.471Z,100.00
2023-04-25T20:30:17.119Z,100.00
2023-04-25T20:37:35.684Z,100.00
2023-04-25T20:44:56.155Z,100.00
2023-04-25T20:52:14.516Z,100.00
2023-04-25T20:59:33.048Z,100.00
2023-04-25T21:06:53.032Z,100.00
2023-04-25T21:14:11.715Z,100.00
2023-04-25T21:21:30.209Z,100.00
2023-04-25T21:28:50.207Z,100.00
2023-04-25T21:36:09.232Z,100.00
2023-04-25T21:43:27.619Z,100.00
2023-04-25T21:50:47.579Z,100.00
2023-04-25T21:58:06.457Z,100.00
2023-04-25T22:05:26.853Z,100.00
2023-04-25T22:12:50.761Z,100.00
2023-04-25T22:20:14.363Z,100.00
2023-04-25T22:27:33.058Z,100.00
2023-04-25T22:34:52.991Z,100.00
2023-04-25T22:42:11.703Z,100.00
2023-04-25T22:49:30.460Z,100.00
2023-04-25T22:56:50.582Z,100.00
2023-04-25T23:04:10.447Z,100.00
2023-04-25T23:11:28.998Z,100.00
2023-04-25T23:18:48.822Z,100.00
2023-04-25T23:26:10.335Z,100.00
2023-04-25T23:33:28.708Z,100.00
2023-04-25T23:40:48.505Z,100.00
2023-04-25T23:48:07.431Z,100.00
2023-04-25T23:55:26.177Z,100.00
